Christoph Heinrich

Jefe de ojeadores - FC Augsburg
24 Oct 2027
Domingo
Continuar

Personalidad

Adaptabilidad (9) Ambición (8) Controversia (1) Lealtad (15) Presión (14) Profesionalismo (14) Deportividad (5) Temperamento (8)

Perfil

Estilo de dirección Democrático
Licencia Continental Pro
Determinación 8
Gestión de personas 13
Motivación 9
Disciplina 14
Satisfacción laboral
31%
Fatiga
0%
Cargo Jefe de ojeadores
Salario 15.8K p/s
Contrato 14.03.2028

Rendimiento

Comportamiento Bueno
Efectividad del entrenamiento
12%
Desarrollo de jugadores
30%
Prevención de lesiones
55%
Implementación táctica
65%

Eventos recientes

Asistió a una reunión de captación 49d atrás
Recomendó un objetivo de fichaje 49d atrás
Asistió a una reunión de captación 49d atrás
Evaluó a un jugador 56d atrás
Asistió a una reunión de captación 56d atrás
Recomendó un objetivo de fichaje 56d atrás
Asistió a una reunión de captación 56d atrás

Actualmente siguiendo

84
Jugador Club Estado Habilidad Confianza Observado Última observación Último voto
Mohamed Moussa Koïta Persik Activo 96 / 96 40% 4 23.08.2027 -
Mamadou Sarr Chelsea Activo 144 / 150 40% 1 23.08.2027 -
Yannick Geiger BK Hacken Activo 109 / 115 40% 1 23.08.2027 -
Elias Lenz Valenciennes Activo 96 / 105 40% 1 20.08.2027 -
Mattia Puzone Siracusa Activo 109 / 111 40% 1 20.08.2027 -
Sergiu Perciun Torino Activo 116 / 120 40% 2 19.08.2027 -
Ishé Samuels-Smith Chelsea Activo 119 / 124 40% 1 19.08.2027 -
Ryan Kessler Sion Activo 93 / 103 40% 1 19.08.2027 -
Jarvis Thornton Sheffield Wednesday Activo 112 / 114 40% 3 17.08.2027 -
Charlie Tasker Brighton Activo 102 / 110 40% 1 17.08.2027 -
Mads Bomholt Rosenborg Activo 113 / 115 40% 2 09.08.2027 -
Bradley de Jesus Gil Vicente Activo 95 / 101 40% 3 09.08.2027 -
Matías Calegari Olympiacos Activo 111 / 101 40% 1 09.08.2027 -
Yaroslav Matyukhin Alashkert Activo 94 / 101 40% 1 08.08.2027 -
Axel Tape Bayer Leverkusen Activo 137 / 136 40% 4 04.08.2027 Observar
Kaick FC Dallas Activo 93 / 107 40% 3 04.08.2027 -
Mandla Mothiba Free State Stars Activo 96 / 104 40% 1 04.08.2027 -
Thiago Helguera Braga Activo 128 / 130 40% 2 02.08.2027 -
Valente Pierani Estudiantes Activo 118 / 118 40% 2 02.08.2027 -
Lautaro Dufur Rentistas Activo 106 / 110 40% 1 02.08.2027 -
Juan Morán Godoy Cruz Activo 108 / 110 40% 2 01.08.2027 -
Harley Mills Peterborough United Activo 102 / 107 40% 2 01.08.2027 -
Valentino Massi Sarmiento Activo 94 / 104 40% 1 01.08.2027 -
Yasin Özcan Aston Villa Activo 112 / 123 40% 1 31.07.2027 -
Baltazar Blum Macías Boca Juniors Activo 95 / 107 40% 1 31.07.2027 -
Brandon Powell Blackburn Rovers Activo 109 / 123 40% 4 30.07.2027 -
Yoram Zague Paris Saint-Germain Activo 128 / 126 40% 1 27.07.2027 -
Alejandro Almaraz Oviedo Activo 103 / 123 40% 1 27.07.2027 -
Almugera Kabar Borussia Dortmund Activo 127 / 126 40% 2 26.07.2027 -
Mathys Angély VfL Wolfsburg Activo 107 / 120 40% 2 26.07.2027 -
Martim Cunha Porto Activo 107 / 110 40% 3 24.07.2027 -
Lucas Barrientos Los Andes Activo 85 / 107 40% 1 24.07.2027 -
Denys Smetana Inhulets Activo 102 / 102 40% 3 21.07.2027 -
Rabby Nzingoula West Bromwich Albion Activo 115 / 125 40% 1 21.07.2027 -
Lucio Cruceño Godoy Cruz Activo 89 / 106 40% 2 18.07.2027 -
Cole McGhee Sheffield Wednesday Activo 89 / 103 40% 1 18.07.2027 -
Martin Kern Puskas Akademia Activo 90 / 112 40% 2 14.07.2027 -
Christoph Junuzovic Mattersburg Activo 100 / 111 40% 1 14.07.2027 -
Enzo Cardozo Huracán Activo 115 / 117 40% 2 13.07.2027 -
Josh Davidson Elche Activo 98 / 100 40% 1 13.07.2027 -
Ezra Mayers West Ham United Activo 128 / 132 40% 1 09.07.2027 -
Simone Kosijer Triestina Activo 106 / 101 40% 2 07.07.2027 -
Sabil Hansen Randers Activo 104 / 115 40% 2 06.07.2027 -
Bung Meng Freimann Luzern Activo 117 / 117 40% 2 05.07.2027 -
Vasyl Bundash Metalurh Zaporizhzhia Activo 104 / 112 40% 2 04.07.2027 -
Vincent Burlet Cracovia Activo 99 / 108 40% 2 30.06.2027 -
Santiago Daniele Chacarita Juniors Activo 92 / 107 40% 1 16.06.2027 -
Valente Pierani Estudiantes Perdido 123 / 118 40% 1 16.06.2027 -
Elie N'Gatta Sochaux Activo 99 / 104 40% 3 15.06.2027 -
Dylan Gorosito Boca Juniors Activo 114 / 115 40% 1 15.06.2027 -
Freddie Simmonds Brighton Activo 111 / 114 40% 1 14.06.2027 -
Augusto Bando Ascoli Activo 96 / 110 40% 1 06.06.2027 -
Manuel Lopez Valledupar Activo 98 / 106 40% 1 04.06.2027 -
Sam Parker Swansea City Activo 101 / 99 40% 1 01.06.2027 -
Joaquin Seys Club Brugge Activo 125 / 130 40% 2 26.01.2027 Más información
Ignacio Perruzzi San Lorenzo Activo 132 / 126 40% 2 26.01.2027 -
Breno Bidon Corinthians Activo 119 / 130 40% 5 25.01.2027 -
Sean Fusire Sheffield Wednesday Activo 94 / 104 40% 2 25.01.2027 -
Emirhan Başyiğit Sivasspor Activo 115 / 118 40% 1 24.01.2027 -
Halam Loboa Osasuna Activo 123 / 130 40% 1 22.01.2027 -
Thijmen Blokzijl Groningen Activo 118 / 123 40% 2 19.01.2027 -
Lucas Agazzi Benfica Activo 124 / 121 40% 1 19.01.2027 -
Juan Giménez Athletic Bilbao Activo 116 / 122 40% 2 14.01.2027 -
Pietro Reggiori Pro Patria Activo 92 / 94 40% 1 13.01.2027 -
Surprise Manthosi Polokwane City Activo 79 / 89 40% 1 11.01.2027 -
Kyriani Sabbe Club Brugge Activo 118 / 128 40% 2 10.01.2027 -
Marius Courcoul Olympique de Marseille Activo 112 / 120 40% 1 01.01.2027 -
Tomy Carbonell Real Sociedad Activo 102 / 115 40% 1 31.08.2026 Más información
Javier Mena Villarreal Activo 109 / 118 40% 1 31.08.2026 Más información
Arjan Malić Sturm Graz Activo 108 / 118 40% 2 29.08.2026 -
Teun Gijselhart Deportivo La Coruña Activo 101 / 114 40% 1 25.08.2026 -
José Pachuca Puebla Activo 103 / 105 40% 1 25.08.2026 -
Sydie Peck Sheffield United Activo 121 / 126 40% 1 20.08.2026 -
Dejan Radonjić SV Ried Activo 108 / 114 40% 1 20.08.2026 -
Samuel Marques Grasshopper Activo 111 / 112 40% 1 19.08.2026 -
Ameen Al-Dakhil VfB Stuttgart Activo 130 / 128 69% 1 17.08.2026 Aprobar
Dom Ballard Leyton Orient Activo 115 / 118 40% 1 16.08.2026 -
Luciano Inverso Valencia Activo 103 / 111 40% 1 15.08.2026 -
Archie Goodwin Charlotte Football Club Activo 104 / 109 40% 1 15.08.2026 -
Alessandro Vogt TSG Hoffenheim Activo 119 / 125 40% 1 14.08.2026 -
Jorge Salinas Racing Santander Activo 117 / 130 40% 1 10.08.2026 -
Boris Matić Wolfsberger AC Activo 115 / 120 40% 1 10.08.2026 -
Oliver Strunz Rapid Wien Activo 109 / 113 40% 1 01.08.2026 -
Haris Tabaković Red Bull Salzburg Activo 143 / 140 40% 1 01.08.2026 -